9°C
Porth, Newquay, Cornwall. UK  Tell A Friend
 Ad **Ad
Updated17/12/2017 00:00 
 


Nearby METAR Reports From


Metar Station     Metar Station     Metar Station     Metar Station     Metar Station
EGHQ Newquay     EGDR Culdrose (navy)     EGDX ST Athan raf     EGDY Yeovitilton (navy)     EGFF Cardiff
EGHH Bournemouth     EGBB Birmingham     EGKA Shoreham-By-Sea     EGOP Pembry Sands     EGTE Exeter Airport
EGGD Bristol     EGHE Scilly     EGJA Alderney     EGJB Guernsey     EGJJ Jersey
France       LFRC Cherbourg/Mauper     LFRB Brest/Guipavas     LFRO Lannion/Servel        
More Metars Here                                
EGHQ - Newquay, United Kingdom
Updated: 16/12/2017 18:20

NOT Current
Nearby showers, Partly cloudy
Nearby showers, Partly cloudy
 Wind from NW
Wind: NW 17 mph , 28 km/h, 15 kts
Temperature: 8°C
Wind Chill: 4°C
Dew Point: 6°C
Humidity: 87%
Barometer: 1024 hPa
Summary: Nearby Showers
Clouds: Partly Cloudy
Visibility: 6 miles , 10 km
Cloud details: Partly Cloudy 366 m
Partly Cloudy 853 m
2017/12/16 18:20 EGHQ 161820Z 31015KT 9999 VCSH SCT012 SCT028 08/06 Q1024
EGDR - Culdrose (navy), United Kingdom
Updated: 16/12/2017 23:50
Partly Cloudy
Partly Cloudy
 Wind from WNW
Wind: WNW 9 mph , 15 km/h, 8 kts
Temperature: 8°C
Wind Chill: 5°C
Dew Point: 7°C
Humidity: 93%
Barometer: 1026 hPa
Clouds: Partly Cloudy
Visibility: 6 miles , 10 km
Cloud details: Partly Cloudy 396 m
Partly Cloudy 2438 m
2017/12/16 23:50 EGDR 162350Z AUTO 29008KT 9999 // SCT013/// SCT080/// 08/07 Q1026
 
EGHC - Lands End, United Kingdom
Updated: 16/12/2017 11:50

NOT Current
Few Clouds
Few Clouds
 Wind from NW
Wind: NW 14 mph , 22 km/h, 12 kts
Temperature: 7°C
Wind Chill: 4°C
Dew Point: 2°C
Humidity: 71%
Barometer: 1023 hPa
Clouds: Few Clouds
Visibility: 6 miles , 10 km
Cloud details: Few Clouds 366 m
2017/12/16 11:50 EGHC 161150Z 31012KT 9999 FEW012 07/02 Q1023
EGHE - Scilly Saint Mar, United Kingdom
Updated: 16/12/2017 12:20

NOT Current
Mostly Cloudy
Mostly Cloudy
 Wind from NNW
Wind: NNW 12 mph , 19 km/h, 10 kts
Temperature: 9°C
Wind Chill: 6°C
Dew Point: 2°C
Humidity: 62%
Barometer: 1025 hPa
Clouds: Mostly Cloudy
Visibility: 6 miles , 10 km
Cloud details: Partly Cloudy 792 m
Mostly Cloudy 1097 m
2017/12/16 12:20 EGHE 161220Z 33010KT 9999 SCT026 BKN036 09/02 Q1025
 
EGTE - Exeter Airport, United Kingdom
Updated: 16/12/2017 15:20

NOT Current
Nearby showers, Partly cloudy
Nearby showers, Partly cloudy
 Wind from WNW
Wind: WNW 9 mph , 15 km/h, 8 kts
Temperature: 6°C
Wind Chill: 3°C
Dew Point: 4°C
Humidity: 87%
Barometer: 1021 hPa
Summary: Nearby Showers
Clouds: Partly Cloudy
Visibility: 6 miles , 10 km
Cloud details: Few Clouds 610 m
Partly Cloudy 762 m
2017/12/16 15:20 EGTE 161520Z 29008KT 9999 VCSH FEW020 SCT025 06/04 Q1021
EGOP - Pembry Sands, United Kingdom
Updated: 16/12/2017 23:50
Overcast
Overcast
 Wind from WSW
Wind: WSW 2 mph , 4 km/h, 2 kts
Temperature: 5°C
Dew Point: 4°C
Humidity: 93%
Barometer: 1024 hPa
Clouds: Overcast
Visibility: 6 miles , 10 km
Cloud details: Few Clouds 1524 m
Overcast 2438 m
2017/12/16 23:50 EGOP 162350Z AUTO 24002KT 9999 // FEW050/// OVC080/// 05/04 Q1024
 
EGDX - St Athan Raf, United Kingdom
Updated: 16/12/2017 23:50
Overcast
Overcast
 Wind from NW
Wind: NW 5 mph , 7 km/h, 4 kts
Temperature: 6°C
Wind Chill: 4°C
Dew Point: 3°C
Humidity: 81%
Barometer: 1024 hPa
Clouds: Overcast
Visibility: 6 miles , 10 km
Cloud details: Overcast 2438 m
2017/12/16 23:50 EGDX 162350Z AUTO 31004KT 9999 OVC080/// 06/03 Q1024
EGFF - Cardiff-Wales Ar, United Kingdom
Updated: 16/12/2017 23:50
Clear
Clear
 Wind from WNW
Wind: WNW 6 mph , 9 km/h, 5 kts
Temperature: 4°C
Wind Chill: 2°C
Dew Point: 3°C
Humidity: 93%
Barometer: 1024 hPa
Clouds: Clear
Visibility: 6 miles , 10 km
2017/12/16 23:50 EGFF 162350Z AUTO 30005KT 9999 NCD 04/03 Q1024
 
EGDY - Yeovilton (navy), United Kingdom
Updated: 16/12/2017 23:50
Mist, Few clouds
Mist, Few clouds
 Wind from ESE
Wind: ESE 2 mph , 4 km/h, 2 kts
Temperature: 1°C
Dew Point: 1°C
Humidity: 100%
Barometer: 1024 hPa
Summary: Mist
Clouds: Few Clouds
Visibility: 4 miles , 7 km
Cloud details: Few Clouds 2743 m
2017/12/16 23:50 EGDY 162350Z AUTO 11002KT 7000 BR FEW090/// 01/01 Q1024
EGGD - Bristol/Lulsgate, United Kingdom
Updated: 16/12/2017 23:50
Clear
Clear
 Wind from WSW
Wind: WSW 8 mph , 13 km/h, 7 kts
Temperature: 3°C
Wind Chill: -1°C
Dew Point: 2°C
Humidity: 93%
Barometer: 1023 hPa
Clouds: Clear
Visibility: 6 miles , 10 km
2017/12/16 23:50 EGGD 162350Z AUTO 25007KT 9999 NCD 03/02 Q1023
 
EGBB - Birmingham Airpo, United Kingdom
Updated: 16/12/2017 23:50
Clear
Clear
 Wind from NW
Wind: NW 3 mph , 6 km/h, 3 kts
Temperature: 1°C
Dew Point: 1°C
Humidity: 100%
Barometer: 1023 hPa
Summary: Clear
Visibility: greater than 7 miles , 10 km
2017/12/16 23:50 EGBB 162350Z 31003KT CAVOK 01/01 Q1023
EGHH - Bournemouth Airp, United Kingdom
Updated: 16/12/2017 22:20

NOT Current
Clear
Clear
 Wind from WNW
Wind: WNW 8 mph , 13 km/h, 7 kts
Temperature: 3°C
Wind Chill: -1°C
Dew Point: 2°C
Humidity: 93%
Barometer: 1023 hPa
Summary: Clear
Visibility: greater than 7 miles , 10 km
2017/12/16 22:20 EGHH 162220Z 30007KT CAVOK 03/02 Q1023
 
EGKA - Shoreham-By-Sea, United Kingdom
Updated: 16/12/2017 17:50

NOT Current
Few Clouds
Few Clouds
 Wind from WNW
Wind: WNW 12 mph , 19 km/h, 10 kts
Temperature: 6°C
Wind Chill: 3°C
Dew Point: 2°C
Humidity: 76%
Barometer: 1020 hPa
Clouds: Few Clouds
Visibility: 6 miles , 10 km
Cloud details: Few Clouds 853 m
2017/12/16 17:50 EGKA 161750Z 29010KT 9999 FEW028 06/02 Q1020
EGJA - Alderney/Channel, United Kingdom
Updated: 16/12/2017 17:50

NOT Current
Rain showers, Mostly cloudy
Rain showers, Mostly cloudy
 Wind from NW
Wind: NW 15 mph , 24 km/h, 13 kts
Summary: Rain Showers
Clouds: Mostly Cloudy
Visibility: 6 miles , 10 km
Cloud details: Mostly Cloudy 792 m
2017/12/16 17:50 EGJA 161750Z 31013KT 9999 SHRA BKN026 07/// Q1022
 
EGJB - Guernsey Airport, United Kingdom
Updated: 16/12/2017 21:50

NOT Current
Nearby showers, Partly cloudy
Nearby showers, Partly cloudy
 Wind from NW
Wind: NW 15 mph , 24 km/h, 13 kts
Temperature: 9°C
Wind Chill: 6°C
Dew Point: 5°C
Humidity: 76%
Barometer: 1024 hPa
Summary: Nearby Showers
Clouds: Partly Cloudy
Visibility: 6 miles , 10 km
Cloud details: Few Clouds 488 m
Partly Cloudy 1219 m
2017/12/16 21:50 EGJB 162150Z 31013KT 9999 VCSH FEW016 SCT040 09/05 Q1024
EGJJ - Jersey Airport, United Kingdom
Updated: 16/12/2017 23:50
Mostly Cloudy
Mostly Cloudy
 Wind from NNW
Wind: NNW 12 mph , 19 km/h, 10 kts
Temperature: 8°C
Wind Chill: 4°C
Dew Point: 6°C
Humidity: 87%
Barometer: 1024 hPa
Clouds: Mostly Cloudy
Visibility: 6 miles , 10 km
Cloud details: Few Clouds 579 m
Mostly Cloudy 671 m
Mostly Cloudy 762 m
2017/12/16 23:50 EGJJ 162350Z AUTO 33010KT 9999 FEW019/// BKN022/// BKN025/// 08/06 Q1024
 
LFRC - Cherbourg/Mauper, France
Updated: 17/12/2017 00:00
Partly Cloudy
Partly Cloudy
 Wind from NNW
Wind: NNW 9 mph , 15 km/h, 8 kts
Temperature: 7°C
Wind Chill: 4°C
Dew Point: 2°C
Humidity: 71%
Barometer: 1024 hPa
Clouds: Partly Cloudy
Visibility: 6 miles , 10 km
Cloud details: Partly Cloudy 732 m
Partly Cloudy 1219 m
2017/12/17 00:00 LFRC 170000Z AUTO 34008KT 310V010 9999 SCT024 SCT040 07/02 Q1024
LFRB - Brest/Guipavas, France
Updated: 17/12/2017 00:00
Overcast
Overcast
 Wind from WNW
Wind: WNW 6 mph , 9 km/h, 5 kts
Temperature: 8°C
Wind Chill: 6°C
Dew Point: 5°C
Humidity: 82%
Barometer: 1027 hPa
Clouds: Overcast
Visibility: 6 miles , 10 km
Cloud details: Few Clouds 823 m
Partly Cloudy 1311 m
Overcast 2926 m
2017/12/17 00:00 LFRB 170000Z AUTO 29005KT 9999 FEW027 SCT043 OVC096 08/05 Q1027 NOSIG
 
LFRO - Lannion/Servel, France
Updated: 17/12/2017 00:00
Thunderstorm
Thunderstorm
 Wind from WNW
Wind: WNW 12 mph , 19 km/h, 10 kts
Temperature: 8°C
Wind Chill: 4°C
Dew Point: 6°C
Humidity: 87%
Barometer: 1026 hPa
Clouds: Thunderstorm
Visibility: 6 miles , 10 km
Cloud details: Few Clouds 549 m
Partly Cloudy 1067 m
Mostly Cloudy 1402 m
2017/12/17 00:00 LFRO 170000Z AUTO 29010KT 9999 FEW018/// SCT035/// BKN046/// ///TCU 08/06 Q1026

# Note Plymouth airport closed 23/12/2011

Metar, brief description

METAR is a format for reporting weather information. A METAR weather report is predominantly used by pilots in fulfillment of a part of a pre-flight weather briefing, and by meteorologists, who use aggregated METAR information to assist in weather forecasting.

Raw METAR is the most popular format in the world for the transmission of weather data. Each METAR report contains essential information about the current weather conditions: Temperature, Dew Point, Barometric Pressure, Wind Speed and Direction, Visibility, Clouds Cover, Current Weather (Rain, Thunderstorms, Hail, Snow and so on...), here is an example of a raw metar report for EGHQ (Newquay airport).
METAR not available